createdAt,value
2023-01-21T00:04:34.659Z,3.08
2023-01-21T00:09:56.405Z,3.55
2023-01-21T00:15:18.136Z,3.70
2023-01-21T00:20:39.989Z,3.13
2023-01-21T00:26:03.857Z,2.65
2023-01-21T00:31:26.337Z,2.72
2023-01-21T00:36:48.082Z,2.90
2023-01-21T00:42:11.432Z,2.80
2023-01-21T00:47:33.182Z,3.30
2023-01-21T00:52:55.275Z,3.78
2023-01-21T00:58:17.027Z,4.00
2023-01-21T01:03:39.897Z,3.83
2023-01-21T01:09:01.704Z,3.42
2023-01-21T01:14:23.982Z,2.78
2023-01-21T01:19:45.804Z,3.10
2023-01-21T01:25:07.690Z,4.72
2023-01-21T01:30:29.822Z,5.05
2023-01-21T01:35:52.123Z,4.30
2023-01-21T01:41:17.616Z,4.70
2023-01-21T01:46:39.392Z,4.60
2023-01-21T01:52:05.119Z,5.03
2023-01-21T02:03:13.246Z,3.70
2023-01-21T02:08:36.479Z,4.20
2023-01-21T02:14:00.142Z,4.68
2023-01-21T02:19:43.558Z,4.35
2023-01-21T02:25:41.648Z,3.95
2023-01-21T02:31:30.455Z,4.20
2023-01-21T02:37:05.348Z,4.53
2023-01-21T02:42:45.254Z,4.05
2023-01-21T02:48:26.311Z,3.55
2023-01-21T02:53:48.087Z,3.35
2023-01-21T02:59:10.687Z,4.63
2023-01-21T03:04:58.399Z,5.20
2023-01-21T03:10:32.068Z,5.10
2023-01-21T03:16:15.726Z,5.30
2023-01-21T03:21:38.469Z,5.68
2023-01-21T03:27:02.169Z,5.10
2023-01-21T03:32:25.967Z,4.68
2023-01-21T03:37:53.034Z,4.88
2023-01-21T03:43:14.853Z,5.03
2023-01-21T03:48:57.505Z,5.53
2023-01-21T03:54:19.506Z,4.30
2023-01-21T03:59:41.340Z,4.63
2023-01-21T04:05:03.642Z,4.30
2023-01-21T04:10:25.336Z,4.72
2023-01-21T04:15:47.715Z,5.20
2023-01-21T04:21:09.515Z,5.00
2023-01-21T04:26:31.301Z,5.18
2023-01-21T04:31:53.041Z,5.60
2023-01-21T04:37:14.936Z,5.22
2023-01-21T04:42:36.653Z,6.47
2023-01-21T04:47:58.410Z,5.82
2023-01-21T04:53:20.141Z,5.72
2023-01-21T04:58:41.853Z,5.55
2023-01-21T05:04:03.762Z,6.10
2023-01-21T05:09:25.649Z,5.30
2023-01-21T05:14:47.369Z,6.03
2023-01-21T05:20:09.881Z,5.72
2023-01-21T05:25:31.615Z,5.63
2023-01-21T05:30:53.320Z,5.82
2023-01-21T05:36:15.121Z,5.30
2023-01-21T05:41:36.925Z,6.18
2023-01-21T05:46:58.641Z,6.63
2023-01-21T05:52:20.407Z,6.25
2023-01-21T05:57:42.145Z,5.82
2023-01-21T06:03:04.390Z,4.78
2023-01-21T06:08:26.140Z,5.93
2023-01-21T06:13:47.904Z,6.13
2023-01-21T06:19:09.645Z,6.40
2023-01-21T06:24:31.577Z,5.50
2023-01-21T06:29:53.282Z,5.03
2023-01-21T06:35:15.432Z,5.68
2023-01-21T06:40:37.224Z,4.10
2023-01-21T06:45:59.051Z,4.68
2023-01-21T06:51:20.889Z,2.97
2023-01-21T06:56:43.841Z,2.80
2023-01-21T07:02:05.861Z,2.70
2023-01-21T07:07:27.700Z,2.70
2023-01-21T07:12:49.427Z,2.80
2023-01-21T07:18:11.131Z,2.83
2023-01-21T07:23:32.829Z,3.22
2023-01-21T07:28:54.541Z,3.25
2023-01-21T07:34:16.590Z,2.97
2023-01-21T07:39:38.307Z,3.22
2023-01-21T07:45:02.913Z,3.92
2023-01-21T07:50:24.721Z,4.15
2023-01-21T07:55:46.498Z,4.00
2023-01-21T08:01:10.094Z,3.95
2023-01-21T08:06:31.816Z,3.67
2023-01-21T08:11:53.587Z,3.67
2023-01-21T08:17:15.308Z,4.18
2023-01-21T08:22:37.808Z,3.80
2023-01-21T08:28:02.157Z,3.67
2023-01-21T08:33:23.817Z,3.55
2023-01-21T08:38:48.453Z,2.80
2023-01-21T08:44:10.624Z,3.37
2023-01-21T08:49:32.319Z,3.22
2023-01-21T08:54:54.289Z,3.28
2023-01-21T09:00:16.390Z,2.78
2023-01-21T09:05:38.045Z,3.50
2023-01-21T09:11:01.089Z,3.58
2023-01-21T09:16:23.418Z,3.42
2023-01-21T09:21:45.141Z,3.75
2023-01-21T09:27:07.782Z,3.30
2023-01-21T09:32:29.500Z,3.55
2023-01-21T09:37:51.203Z,3.53
2023-01-21T09:43:23.409Z,3.70
2023-01-21T09:48:48.741Z,3.83
2023-01-21T09:59:59.799Z,4.22
2023-01-21T10:05:24.183Z,4.85
2023-01-21T10:10:52.700Z,5.10
2023-01-21T10:16:42.356Z,5.82
2023-01-21T10:22:12.353Z,4.43
2023-01-21T10:27:38.114Z,4.35
2023-01-21T10:33:00.711Z,4.47
2023-01-21T10:38:34.217Z,4.55
2023-01-21T10:44:09.504Z,4.13
2023-01-21T10:49:52.496Z,4.70
2023-01-21T10:56:00.226Z,4.68
2023-01-21T11:06:59.320Z,4.47
2023-01-21T11:12:22.363Z,4.45
2023-01-21T11:17:50.160Z,5.10
2023-01-21T11:23:27.366Z,6.28
2023-01-21T11:28:49.189Z,6.97
2023-01-21T11:34:17.616Z,6.50
2023-01-21T11:39:48.263Z,7.00
2023-01-21T11:45:38.864Z,6.78
2023-01-21T11:51:07.431Z,8.98
2023-01-21T11:56:29.294Z,7.57
2023-01-21T12:02:04.857Z,7.43
2023-01-21T12:07:33.268Z,7.40
2023-01-21T12:13:10.226Z,7.78
2023-01-21T12:18:34.912Z,7.65
2023-01-21T12:24:14.875Z,7.63
2023-01-21T12:30:06.712Z,6.72
2023-01-21T12:35:39.694Z,6.88
2023-01-21T12:41:17.229Z,6.65
2023-01-21T12:46:44.889Z,5.72
2023-01-21T12:52:19.082Z,5.35
2023-01-21T12:57:58.702Z,5.38
2023-01-21T13:03:24.497Z,5.07
2023-01-21T13:09:27.889Z,7.03
2023-01-21T13:15:18.857Z,6.05
2023-01-21T13:20:53.049Z,4.97
2023-01-21T13:26:52.901Z,5.38
2023-01-21T13:32:23.746Z,4.90
2023-01-21T13:37:47.944Z,5.20
2023-01-21T13:43:12.542Z,5.03
2023-01-21T13:48:43.160Z,5.53
2023-01-21T13:54:27.459Z,6.10
2023-01-21T13:59:55.330Z,5.50
2023-01-21T14:05:19.814Z,5.75
2023-01-21T14:11:06.228Z,5.68
2023-01-21T14:16:34.314Z,4.97
2023-01-21T14:22:10.938Z,4.82
2023-01-21T14:27:38.363Z,4.60
2023-01-21T14:33:46.484Z,4.45
2023-01-21T14:39:19.985Z,3.30
2023-01-21T14:44:50.613Z,3.85
2023-01-21T14:50:44.804Z,3.30
2023-01-21T14:56:19.295Z,3.85
2023-01-21T15:01:48.157Z,3.60
2023-01-21T15:07:18.031Z,3.70
2023-01-21T15:12:46.217Z,3.97
2023-01-21T15:18:10.689Z,4.18
2023-01-21T15:23:32.353Z,3.33
2023-01-21T15:28:56.424Z,3.60
2023-01-21T15:34:21.846Z,3.55
2023-01-21T15:45:23.875Z,3.03
2023-01-21T15:50:57.408Z,3.15
2023-01-21T15:56:19.203Z,2.97
2023-01-21T16:01:41.518Z,3.50
2023-01-21T16:07:09.084Z,3.33
2023-01-21T16:12:57.401Z,3.53
2023-01-21T16:18:43.403Z,2.95
2023-01-21T16:24:10.332Z,3.40
2023-01-21T16:29:38.689Z,3.08
2023-01-21T16:35:01.182Z,3.67
2023-01-21T16:40:29.998Z,3.50
2023-01-21T16:46:01.330Z,3.53
2023-01-21T16:51:28.852Z,3.55
2023-01-21T16:57:20.335Z,3.65
2023-01-21T17:02:42.136Z,2.72
2023-01-21T17:08:11.370Z,4.00
2023-01-21T17:13:33.572Z,3.42
2023-01-21T17:18:57.268Z,3.17
2023-01-21T17:24:24.129Z,5.07
2023-01-21T17:29:46.069Z,6.60
2023-01-21T17:35:15.363Z,8.40
2023-01-21T17:40:58.873Z,10.90
2023-01-21T17:46:22.802Z,12.50
2023-01-21T17:51:45.373Z,12.50
2023-01-21T17:57:35.986Z,11.57
2023-01-21T18:02:58.427Z,11.18
2023-01-21T18:08:20.358Z,9.68
2023-01-21T18:13:42.168Z,11.48
2023-01-21T18:19:03.941Z,11.60
2023-01-21T18:24:26.299Z,12.13
2023-01-21T18:29:48.272Z,11.77
2023-01-21T18:35:11.240Z,13.48
2023-01-21T18:40:33.091Z,11.77
2023-01-21T18:45:54.981Z,11.48
2023-01-21T18:51:16.965Z,11.45
2023-01-21T18:56:38.849Z,9.75
2023-01-21T19:02:00.770Z,8.73
2023-01-21T19:07:23.938Z,8.82
2023-01-21T19:12:47.072Z,8.18
2023-01-21T19:18:13.844Z,7.47
2023-01-21T19:23:36.023Z,7.07
2023-01-21T19:28:58.124Z,7.18
2023-01-21T19:34:22.011Z,7.22
2023-01-21T19:39:44.174Z,6.70
2023-01-21T19:45:08.861Z,7.03
2023-01-21T19:50:31.111Z,8.03
2023-01-21T19:55:52.975Z,8.10
2023-01-21T20:01:14.816Z,7.35
2023-01-21T20:06:40.477Z,7.65
2023-01-21T20:12:04.347Z,8.05
2023-01-21T20:17:27.893Z,8.20
2023-01-21T20:22:50.024Z,7.78
2023-01-21T20:28:35.960Z,7.28
2023-01-21T20:33:57.888Z,6.77
2023-01-21T20:39:20.443Z,5.80
2023-01-21T20:44:42.149Z,5.72
2023-01-21T20:50:06.088Z,6.28
2023-01-21T20:55:29.450Z,6.22
2023-01-21T21:00:51.197Z,6.03
2023-01-21T21:06:25.374Z,6.55
2023-01-21T21:11:47.109Z,5.80
2023-01-21T21:17:14.588Z,6.38
2023-01-21T21:22:36.245Z,5.63
2023-01-21T21:27:58.515Z,5.25
2023-01-21T21:33:22.206Z,5.35
2023-01-21T21:38:46.389Z,10.07
2023-01-21T21:44:09.355Z,7.85
2023-01-21T21:49:31.238Z,8.07
2023-01-21T21:54:54.580Z,6.53
2023-01-21T22:00:16.920Z,6.47
2023-01-21T22:05:38.657Z,5.65
2023-01-21T22:11:02.227Z,6.10
2023-01-21T22:16:28.879Z,5.40
2023-01-21T22:21:50.621Z,5.53
2023-01-21T22:27:13.351Z,4.97
2023-01-21T22:32:35.046Z,5.28
2023-01-21T22:37:56.731Z,4.97
2023-01-21T22:43:21.079Z,4.70
2023-01-21T22:48:42.900Z,5.57
2023-01-21T22:54:05.031Z,5.97
2023-01-21T22:59:26.820Z,5.80
2023-01-21T23:04:48.570Z,5.20
2023-01-21T23:10:10.611Z,5.80
2023-01-21T23:15:32.378Z,6.65
2023-01-21T23:20:54.592Z,6.00
2023-01-21T23:26:19.419Z,6.88
2023-01-21T23:31:41.222Z,5.50
2023-01-21T23:37:03.027Z,6.25
2023-01-21T23:42:24.759Z,5.90
2023-01-21T23:47:47.758Z,6.38
2023-01-21T23:53:09.553Z,6.97
2023-01-21T23:58:31.378Z,6.43
